Chisholm, MN

2:56 PM CDT on July 30, 2014 (GMT -0500)
Orr Regional (KORB) Elev 1309 ft | 48.02 °N, 92.86 °W | Change Station

Current weather conditions updated 3 minutes ago

Scattered Clouds
Scattered Clouds
77 °F
Feels Like 77 °F
N
9
Wind Variable Wind from NW

Today is forecast to be nearly the same temperature as yesterday.

Today
High -- | Low -- °F
--% Chance of Precip.
Yesterday
High -- | Low -- °F
Precip. -- in
5:46 AM 8:48 PM
Waxing Crescent, 13% visible
Pressure 29.98 in
Visibility 10.0 miles
Clouds Scattered Clouds 5000 ft
Scattered Clouds 6500 ft
Dew Point 55 °F
Humidity 47%
Rainfall 0.00 in
Snow Depth Not available.
UV 7 out of 12
Pollen 6.00 out of 12
Air Quality Not available.
Flu Activity Not available.
METAR KORB 301953Z AUTO 31008KT 10SM SCT050 SCT065 25/13 A2998 RMK AO2

More Conditions Fewer Conditions

Pressure 29.98 in
Visibility 10.0 miles
Clouds Scattered Clouds 5000 ft
Scattered Clouds 6500 ft
Dew Point 55 °F
Humidity 47%
Rainfall 0.00 in
Snow Depth Not available.
UV 7 out of 12
Pollen 6.00 out of 12
Air Quality Not available.
Flu Activity Not available.
METAR KORB 301953Z AUTO 31008KT 10SM SCT050 SCT065 25/13 A2998 RMK AO2

More Conditions Fewer Conditions

10-Day Weather Forecast

Almanac

Astronomy

Jul. 30, 2014 Rise Set
Actual Time 5:46 AM CDT 8:48 PM CDT
Civil Twilight 5:10 AM CDT 9:24 PM CDT
Nautical Twilight 4:23 AM CDT 10:11 PM CDT
Astronomical Twilight 3:26 AM CDT 11:07 PM CDT
Moon 9:37 AM CDT 10:10 PM CDT
Length of Visible Light 16h 13m
Length of Day
15h 01m
Tomorrow will be 2m 37s shorter.
Waxing Crescent, 13% of the Moon is Illuminated
Today
Waxing Crescent
Aug 3
First Quarter
Aug 10
Full
Aug 17
Last Quarter
Aug 25
New

Today's Extremes

State Highs State Lows

Community

WunderPhotos

Upload Photos

1,739,168 photos uploaded!

WunderBlogs® & News

Nearby

Snow Depth

Station Depth Elevation
No new snow has been reported.

Earthquake Activity

City Distance Mag. Time & Date
No recent earthquake activity has been reported nearby.
Minimum magnitude displayed is 2.5.

Coastal Water Temperatures

Place Temperature
No Stations Reporting

Nearby Weather Stations

Station Location Temp. Heat Index Dew Point Humidity Wind Precip. Elev Updated Type
Long Lake 59-24, Bigfork, MN 75.1 °F 77 °F 61 °F 62% NNW  at  1.0 mph 0.00 in / hr 1381 ft 2:56 PM CDT Rapid Fire

Show More Stations Show Fewer Stations